createdAt,value
2022-12-27T00:00:43.921Z,21.36
2022-12-27T00:03:14.348Z,21.34
2022-12-27T00:05:49.339Z,21.32
2022-12-27T00:08:19.793Z,21.34
2022-12-27T00:10:50.267Z,21.25
2022-12-27T00:13:22.143Z,21.21
2022-12-27T00:15:52.369Z,21.21
2022-12-27T00:18:22.135Z,21.19
2022-12-27T00:20:57.937Z,21.16
2022-12-27T00:23:29.221Z,21.06
2022-12-27T00:26:12.361Z,21.05
2022-12-27T00:28:42.877Z,21.05
2022-12-27T00:31:13.872Z,21.05
2022-12-27T00:33:45.808Z,21.05
2022-12-27T00:36:27.894Z,20.97
2022-12-27T00:39:00.043Z,20.95
2022-12-27T00:41:30.620Z,20.98
2022-12-27T00:44:00.934Z,20.97
2022-12-27T00:46:31.377Z,20.94
2022-12-27T00:49:04.328Z,20.90
2022-12-27T00:51:34.728Z,20.94
2022-12-27T00:54:04.220Z,20.97
2022-12-27T00:56:34.041Z,20.94
2022-12-27T00:59:05.586Z,20.91
2022-12-27T01:01:38.283Z,20.83
2022-12-27T01:04:09.196Z,20.78
2022-12-27T01:06:39.573Z,20.75
2022-12-27T01:09:09.912Z,20.73
2022-12-27T01:11:42.857Z,20.71
2022-12-27T01:14:13.188Z,20.67
2022-12-27T01:16:44.876Z,20.68
2022-12-27T01:19:16.162Z,20.64
2022-12-27T01:21:46.282Z,20.64
2022-12-27T01:24:16.581Z,20.64
2022-12-27T01:26:46.306Z,20.64
2022-12-27T01:29:16.398Z,20.63
2022-12-27T01:31:47.067Z,20.67
2022-12-27T01:34:17.697Z,20.60
2022-12-27T01:36:47.975Z,20.56
2022-12-27T01:39:17.969Z,20.56
2022-12-27T01:42:06.275Z,20.60
2022-12-27T01:44:50.472Z,20.68
2022-12-27T01:47:38.187Z,20.73
2022-12-27T01:50:11.107Z,20.73
2022-12-27T01:52:55.761Z,20.70
2022-12-27T01:55:40.753Z,20.71
2022-12-27T01:58:14.024Z,20.78
2022-12-27T02:00:46.963Z,20.77
2022-12-27T02:03:36.609Z,20.80
2022-12-27T02:06:10.289Z,20.75
2022-12-27T02:09:12.371Z,20.67
2022-12-27T02:11:52.751Z,20.65
2022-12-27T02:14:33.181Z,20.64
2022-12-27T02:17:08.216Z,20.67
2022-12-27T02:19:54.443Z,20.65
2022-12-27T02:23:19.753Z,20.68
2022-12-27T02:26:05.922Z,20.73
2022-12-27T02:28:50.973Z,20.78
2022-12-27T02:31:35.119Z,20.91
2022-12-27T02:34:12.535Z,20.94
2022-12-27T02:36:44.218Z,20.81
2022-12-27T02:42:20.398Z,20.68
2022-12-27T02:45:09.276Z,20.60
2022-12-27T02:47:58.538Z,20.60
2022-12-27T02:51:08.395Z,20.68
2022-12-27T02:54:02.530Z,20.67
2022-12-27T02:57:09.822Z,20.67
2022-12-27T03:00:08.685Z,20.63
2022-12-27T03:03:09.928Z,20.67
2022-12-27T03:05:42.436Z,20.73
2022-12-27T03:08:24.572Z,20.73
2022-12-27T03:11:22.476Z,20.70
2022-12-27T03:14:23.885Z,20.73
2022-12-27T03:17:02.707Z,20.68
2022-12-27T03:20:08.056Z,20.70
2022-12-27T03:22:58.923Z,20.67
2022-12-27T03:25:31.270Z,20.64
2022-12-27T03:28:28.150Z,20.64
2022-12-27T03:31:30.207Z,20.67
2022-12-27T03:34:28.480Z,20.63
2022-12-27T03:37:24.468Z,20.63
2022-12-27T03:40:35.720Z,20.58
2022-12-27T03:43:17.668Z,20.58
2022-12-27T03:46:35.799Z,20.64
2022-12-27T03:49:18.530Z,20.60
2022-12-27T03:52:12.687Z,20.63
2022-12-27T03:54:45.731Z,20.57
2022-12-27T03:57:25.592Z,20.53
2022-12-27T03:59:57.152Z,20.54
2022-12-27T04:02:27.994Z,20.63
2022-12-27T04:04:58.357Z,20.58
2022-12-27T04:07:27.979Z,20.57
2022-12-27T04:10:16.479Z,20.65
2022-12-27T04:13:04.933Z,20.54
2022-12-27T04:15:53.327Z,20.57
2022-12-27T04:18:41.756Z,20.44
2022-12-27T04:21:30.125Z,20.43
2022-12-27T04:24:18.433Z,20.48
2022-12-27T04:27:06.567Z,20.51
2022-12-27T04:29:55.105Z,20.40
2022-12-27T04:32:43.585Z,20.32
2022-12-27T04:35:13.856Z,20.26
2022-12-27T04:37:43.489Z,20.24
2022-12-27T04:40:31.615Z,20.30
2022-12-27T04:43:20.304Z,20.29
2022-12-27T04:46:08.622Z,20.12
2022-12-27T04:48:56.972Z,20.06
2022-12-27T04:51:45.107Z,20.12
2022-12-27T04:54:42.631Z,20.10
2022-12-27T04:57:12.788Z,20.15
2022-12-27T05:00:01.176Z,20.13
2022-12-27T05:02:31.587Z,20.06
2022-12-27T05:05:02.169Z,20.02
2022-12-27T05:07:50.866Z,20.02
2022-12-27T05:10:39.161Z,20.03
2022-12-27T05:13:31.008Z,20.02
2022-12-27T05:16:01.317Z,19.97
2022-12-27T05:18:31.001Z,19.97
2022-12-27T05:21:05.609Z,19.81
2022-12-27T05:23:56.806Z,19.48
2022-12-27T05:26:31.781Z,19.51
2022-12-27T05:29:03.068Z,19.64
2022-12-27T05:31:34.209Z,19.59
2022-12-27T05:34:04.538Z,19.54
2022-12-27T05:36:35.159Z,19.39
2022-12-27T05:39:05.480Z,19.35
2022-12-27T05:41:35.755Z,19.44
2022-12-27T05:44:07.545Z,19.57
2022-12-27T05:46:38.325Z,19.65
2022-12-27T05:49:08.849Z,19.68
2022-12-27T05:51:39.178Z,19.65
2022-12-27T05:54:08.900Z,19.58
2022-12-27T05:56:39.063Z,19.39
2022-12-27T05:59:09.373Z,19.25
2022-12-27T06:01:39.244Z,19.28
2022-12-27T06:04:11.090Z,19.21
2022-12-27T06:06:41.313Z,19.17
2022-12-27T06:09:11.605Z,19.23
2022-12-27T06:11:41.863Z,19.38
2022-12-27T06:14:13.016Z,19.47
2022-12-27T06:16:43.313Z,19.52
2022-12-27T06:19:12.965Z,19.54
2022-12-27T06:21:43.086Z,19.58
2022-12-27T06:24:13.374Z,19.55
2022-12-27T06:26:44.037Z,19.59
2022-12-27T06:29:14.454Z,19.57
2022-12-27T06:31:44.666Z,19.55
2022-12-27T06:34:14.952Z,19.51
2022-12-27T06:36:50.975Z,19.47
2022-12-27T06:39:21.596Z,19.39
2022-12-27T06:41:56.289Z,19.38
2022-12-27T06:44:27.421Z,19.34
2022-12-27T06:46:57.616Z,19.32
2022-12-27T06:49:28.015Z,19.27
2022-12-27T06:51:59.864Z,19.25
2022-12-27T06:54:31.096Z,19.20
2022-12-27T06:57:01.305Z,19.14
2022-12-27T06:59:31.620Z,19.07
2022-12-27T07:02:01.409Z,19.06
2022-12-27T07:04:31.498Z,18.89
2022-12-27T07:07:01.633Z,18.90
2022-12-27T07:09:31.622Z,18.96
2022-12-27T07:12:01.620Z,18.96
2022-12-27T07:14:31.691Z,18.96
2022-12-27T07:17:03.308Z,18.96
2022-12-27T07:19:33.980Z,18.96
2022-12-27T07:22:03.663Z,18.94
2022-12-27T07:24:34.573Z,18.84
2022-12-27T07:27:06.125Z,18.55
2022-12-27T07:29:40.216Z,18.62
2022-12-27T07:32:13.824Z,18.76
2022-12-27T07:34:44.193Z,18.80
2022-12-27T07:37:14.462Z,18.83
2022-12-27T07:39:44.680Z,18.82
2022-12-27T07:42:14.411Z,18.83
2022-12-27T07:44:44.339Z,18.59
2022-12-27T07:47:13.999Z,18.43
2022-12-27T07:49:44.039Z,18.36
2022-12-27T07:52:14.234Z,18.33
2022-12-27T07:54:44.308Z,18.33
2022-12-27T07:57:14.474Z,18.55
2022-12-27T07:59:44.704Z,18.66
2022-12-27T08:02:17.727Z,18.77
2022-12-27T08:04:48.103Z,18.82
2022-12-27T08:07:20.161Z,18.86
2022-12-27T08:09:51.106Z,18.83
2022-12-27T08:12:22.588Z,18.86
2022-12-27T08:14:53.153Z,18.84
2022-12-27T08:17:31.128Z,18.90
2022-12-27T08:20:01.457Z,18.92
2022-12-27T08:22:31.140Z,18.97
2022-12-27T08:25:01.224Z,18.83
2022-12-27T08:27:31.417Z,18.60
2022-12-27T08:30:01.631Z,18.51
2022-12-27T08:32:32.372Z,18.60
2022-12-27T08:35:25.355Z,18.48
2022-12-27T08:37:52.857Z,18.39
2022-12-27T08:40:23.124Z,18.41
2022-12-27T08:42:52.734Z,18.52
2022-12-27T08:45:22.590Z,18.79
2022-12-27T08:47:52.907Z,18.87
2022-12-27T08:50:22.942Z,18.99
2022-12-27T08:52:53.142Z,19.06
2022-12-27T08:55:23.341Z,18.96
2022-12-27T08:57:59.213Z,18.86
2022-12-27T09:00:30.304Z,18.80
2022-12-27T09:03:01.159Z,18.99
2022-12-27T09:05:34.184Z,19.21
2022-12-27T09:08:07.123Z,19.28
2022-12-27T09:10:37.359Z,19.39
2022-12-27T09:13:07.706Z,19.42
2022-12-27T09:15:39.095Z,19.51
2022-12-27T09:18:09.343Z,19.50
2022-12-27T09:20:39.068Z,19.48
2022-12-27T09:23:10.863Z,19.38
2022-12-27T09:25:40.623Z,19.30
2022-12-27T09:28:11.375Z,19.18
2022-12-27T09:30:41.586Z,19.32
2022-12-27T09:33:12.054Z,19.42
2022-12-27T09:35:42.204Z,19.32
2022-12-27T09:38:12.448Z,19.30
2022-12-27T09:40:57.046Z,19.52
2022-12-27T09:43:42.345Z,19.69
2022-12-27T09:46:22.186Z,19.85
2022-12-27T09:48:54.620Z,20.02
2022-12-27T09:51:33.010Z,20.16
2022-12-27T09:54:08.863Z,20.10
2022-12-27T09:57:09.466Z,20.06
2022-12-27T09:59:44.382Z,20.27
2022-12-27T10:02:28.534Z,20.36
2022-12-27T10:05:19.718Z,20.53
2022-12-27T10:08:12.057Z,20.70
2022-12-27T10:10:51.976Z,20.67
2022-12-27T10:13:40.012Z,20.46
2022-12-27T10:16:35.740Z,20.61
2022-12-27T10:19:23.494Z,20.92
2022-12-27T10:22:22.097Z,21.19
2022-12-27T10:25:00.923Z,21.26
2022-12-27T10:27:32.260Z,21.28
2022-12-27T10:30:04.631Z,21.28
2022-12-27T10:32:34.845Z,21.32
2022-12-27T10:35:07.385Z,21.45
2022-12-27T10:37:37.742Z,21.43
2022-12-27T10:40:18.767Z,21.70
2022-12-27T10:43:24.005Z,21.72
2022-12-27T10:45:54.841Z,21.86
2022-12-27T10:48:36.413Z,21.87
2022-12-27T10:51:17.927Z,22.01
2022-12-27T10:53:48.101Z,21.97
2022-12-27T10:56:21.075Z,22.08
2022-12-27T10:59:06.462Z,22.25
2022-12-27T11:01:36.710Z,22.34
2022-12-27T11:04:21.115Z,22.51
2022-12-27T11:07:15.294Z,22.72
2022-12-27T11:09:51.058Z,22.78
2022-12-27T11:12:29.723Z,22.84
2022-12-27T11:15:12.957Z,22.84
2022-12-27T11:17:46.296Z,22.99
2022-12-27T11:20:48.435Z,23.06
2022-12-27T11:23:24.116Z,23.08
2022-12-27T11:26:02.120Z,23.26
2022-12-27T11:28:52.013Z,23.49
2022-12-27T11:31:34.274Z,23.57
2022-12-27T11:34:15.517Z,23.73
2022-12-27T11:36:50.494Z,23.82
2022-12-27T11:39:40.232Z,24.09
2022-12-27T11:42:20.219Z,24.15
2022-12-27T11:45:05.364Z,24.09
2022-12-27T11:47:40.426Z,24.11
2022-12-27T11:50:28.251Z,24.11
2022-12-27T11:53:17.202Z,24.32
2022-12-27T11:56:13.034Z,24.39
2022-12-27T11:59:11.051Z,24.45
2022-12-27T12:02:23.336Z,24.60
2022-12-27T12:05:11.840Z,24.76
2022-12-27T12:08:00.176Z,24.63
2022-12-27T12:10:50.557Z,24.76
2022-12-27T12:13:38.949Z,25.02
2022-12-27T12:16:46.778Z,25.31
2022-12-27T12:19:38.432Z,25.30
2022-12-27T12:22:56.149Z,25.06
2022-12-27T12:26:04.287Z,24.94
2022-12-27T12:31:39.614Z,24.93
2022-12-27T12:34:34.513Z,25.10
2022-12-27T12:37:04.248Z,25.19
2022-12-27T12:40:07.890Z,25.30
2022-12-27T12:43:14.533Z,25.47
2022-12-27T12:46:15.468Z,25.69
2022-12-27T12:49:06.896Z,25.78
2022-12-27T12:52:01.616Z,25.85
2022-12-27T12:54:50.623Z,25.93
2022-12-27T12:57:32.794Z,26.28
2022-12-27T13:00:13.704Z,26.19
2022-12-27T13:03:03.452Z,26.29
2022-12-27T13:05:36.487Z,26.37
2022-12-27T13:08:45.763Z,26.46
2022-12-27T13:11:27.594Z,26.53
2022-12-27T13:14:12.869Z,26.56
2022-12-27T13:16:56.320Z,26.61
2022-12-27T13:19:39.164Z,26.59
2022-12-27T13:22:12.939Z,26.59
2022-12-27T13:25:05.104Z,26.74
2022-12-27T13:27:56.049Z,26.71
2022-12-27T13:30:35.898Z,26.90
2022-12-27T13:33:37.980Z,26.92
2022-12-27T13:36:46.445Z,27.31
2022-12-27T13:39:48.011Z,27.61
2022-12-27T13:42:58.793Z,28.04
2022-12-27T13:45:40.666Z,28.09
2022-12-27T13:48:38.552Z,27.69
2022-12-27T13:51:09.061Z,27.63
2022-12-27T13:53:51.509Z,27.70
2022-12-27T13:56:55.127Z,27.89
2022-12-27T13:59:52.392Z,27.72
2022-12-27T14:02:35.782Z,28.07
2022-12-27T14:05:21.241Z,28.06
2022-12-27T14:07:54.131Z,27.78
2022-12-27T14:10:37.646Z,27.82
2022-12-27T14:13:12.482Z,27.49
2022-12-27T14:16:04.276Z,27.67
2022-12-27T14:18:55.396Z,27.88
2022-12-27T14:21:57.622Z,27.86
2022-12-27T14:25:12.871Z,28.28
2022-12-27T14:27:54.967Z,28.39
2022-12-27T14:30:52.039Z,28.21
2022-12-27T14:33:57.110Z,28.23
2022-12-27T14:36:38.808Z,28.14
2022-12-27T14:39:54.407Z,28.14
2022-12-27T14:42:53.581Z,28.10
2022-12-27T14:45:57.453Z,27.90
2022-12-27T14:48:55.362Z,28.06
2022-12-27T14:52:01.572Z,28.09
2022-12-27T14:54:51.846Z,27.93
2022-12-27T14:57:40.870Z,28.14
2022-12-27T15:00:13.837Z,28.40
2022-12-27T15:03:12.685Z,28.25
2022-12-27T15:05:57.921Z,28.53
2022-12-27T15:09:07.472Z,28.98
2022-12-27T15:12:20.420Z,29.08
2022-12-27T15:15:05.018Z,28.78
2022-12-27T15:17:51.217Z,28.81
2022-12-27T15:20:42.619Z,28.55
2022-12-27T15:23:50.998Z,28.61
2022-12-27T15:26:44.051Z,28.61
2022-12-27T15:29:44.096Z,28.90
2022-12-27T15:32:42.175Z,29.22
2022-12-27T15:35:25.426Z,29.35
2022-12-27T15:38:06.443Z,29.49
2022-12-27T15:40:36.570Z,29.11
2022-12-27T15:43:06.836Z,28.67
2022-12-27T15:45:54.405Z,28.31
2022-12-27T15:49:21.505Z,28.41
2022-12-27T15:52:05.043Z,28.36
2022-12-27T15:55:12.068Z,28.40
2022-12-27T15:58:16.279Z,28.37
2022-12-27T16:00:47.586Z,28.40
2022-12-27T16:03:39.366Z,28.62
2022-12-27T16:06:31.356Z,28.57
2022-12-27T16:09:37.458Z,28.72
2022-12-27T16:12:12.367Z,28.37
2022-12-27T16:14:44.899Z,28.31
2022-12-27T16:17:47.379Z,28.25
2022-12-27T16:20:17.561Z,28.33
2022-12-27T16:23:04.521Z,28.21
2022-12-27T16:25:42.246Z,28.34
2022-12-27T16:28:20.406Z,28.39
2022-12-27T16:30:58.306Z,28.44
2022-12-27T16:33:28.828Z,28.45
2022-12-27T16:36:16.616Z,28.36
2022-12-27T16:38:47.166Z,28.51
2022-12-27T16:41:29.088Z,28.62
2022-12-27T16:44:02.182Z,28.55
2022-12-27T16:46:32.322Z,28.64
2022-12-27T16:49:27.208Z,28.75
2022-12-27T16:52:18.372Z,28.71
2022-12-27T16:54:51.480Z,28.75
2022-12-27T16:57:40.490Z,28.76
2022-12-27T17:00:13.536Z,28.91
2022-12-27T17:02:47.437Z,29.05
2022-12-27T17:05:17.769Z,29.08
2022-12-27T17:07:57.318Z,29.02
2022-12-27T17:10:33.199Z,28.96
2022-12-27T17:13:29.335Z,29.20
2022-12-27T17:16:26.407Z,29.09
2022-12-27T17:19:16.155Z,29.01
2022-12-27T17:21:47.534Z,29.59
2022-12-27T17:24:20.541Z,29.76
2022-12-27T17:27:24.739Z,29.78
2022-12-27T17:30:14.937Z,29.90
2022-12-27T17:33:09.642Z,30.03
2022-12-27T17:36:16.331Z,30.24
2022-12-27T17:38:51.843Z,29.93
2022-12-27T17:41:53.190Z,29.78
2022-12-27T17:44:41.136Z,30.00
2022-12-27T17:47:20.638Z,29.91
2022-12-27T17:49:52.050Z,29.78
2022-12-27T17:52:45.267Z,30.05
2022-12-27T17:55:47.793Z,30.34
2022-12-27T17:58:18.734Z,30.08
2022-12-27T18:01:01.119Z,29.93
2022-12-27T18:03:49.646Z,29.98
2022-12-27T18:06:20.879Z,30.04
2022-12-27T18:08:51.797Z,29.96
2022-12-27T18:11:27.871Z,29.96
2022-12-27T18:14:01.696Z,29.93
2022-12-27T18:16:40.114Z,29.81
2022-12-27T18:19:22.335Z,29.73
2022-12-27T18:22:01.058Z,29.76
2022-12-27T18:24:35.150Z,29.90
2022-12-27T18:27:17.796Z,30.01
2022-12-27T18:29:48.838Z,30.18
2022-12-27T18:32:20.780Z,30.11
2022-12-27T18:34:59.104Z,29.66
2022-12-27T18:37:29.986Z,29.30
2022-12-27T18:40:02.821Z,28.87
2022-12-27T18:42:42.425Z,28.61
2022-12-27T18:45:27.525Z,28.92
2022-12-27T18:48:01.353Z,29.15
2022-12-27T18:50:34.721Z,28.90
2022-12-27T18:53:08.077Z,28.92
2022-12-27T18:55:38.418Z,28.57
2022-12-27T18:58:24.693Z,28.48
2022-12-27T19:00:58.500Z,28.69
2022-12-27T19:03:30.997Z,28.67
2022-12-27T19:06:06.052Z,28.68
2022-12-27T19:08:49.140Z,28.90
2022-12-27T19:11:25.683Z,28.90
2022-12-27T19:14:00.272Z,28.54
2022-12-27T19:16:35.326Z,28.48
2022-12-27T19:19:17.845Z,28.50
2022-12-27T19:21:48.307Z,28.37
2022-12-27T19:24:36.555Z,27.99
2022-12-27T19:27:24.944Z,28.07
2022-12-27T19:29:57.364Z,28.25
2022-12-27T19:32:36.515Z,28.45
2022-12-27T19:35:07.275Z,28.65
2022-12-27T19:37:37.741Z,28.74
2022-12-27T19:40:08.911Z,28.48
2022-12-27T19:42:41.258Z,28.33
2022-12-27T19:45:16.762Z,28.25
2022-12-27T19:47:47.768Z,28.25
2022-12-27T19:50:18.343Z,28.47
2022-12-27T19:52:50.254Z,28.50
2022-12-27T19:55:25.303Z,28.21
2022-12-27T19:57:55.846Z,27.97
2022-12-27T20:00:26.220Z,27.79
2022-12-27T20:02:56.943Z,27.55
2022-12-27T20:06:14.483Z,27.38
2022-12-27T20:08:51.127Z,27.10
2022-12-27T20:11:23.369Z,26.98
2022-12-27T20:13:53.587Z,26.98
2022-12-27T20:16:23.819Z,27.00
2022-12-27T20:18:54.223Z,26.83
2022-12-27T20:21:27.419Z,26.65
2022-12-27T20:23:57.690Z,26.61
2022-12-27T20:26:27.994Z,26.61
2022-12-27T20:28:58.284Z,26.30
2022-12-27T20:31:28.581Z,26.32
2022-12-27T20:33:58.961Z,26.23
2022-12-27T20:36:29.316Z,26.20
2022-12-27T20:38:59.730Z,26.09
2022-12-27T20:41:30.524Z,26.02
2022-12-27T20:44:01.449Z,25.98
2022-12-27T20:46:31.627Z,25.86
2022-12-27T20:49:02.617Z,25.75
2022-12-27T20:51:35.676Z,25.68
2022-12-27T20:54:06.025Z,25.69
2022-12-27T20:56:36.518Z,25.64
2022-12-27T20:59:06.760Z,25.65
2022-12-27T21:01:37.288Z,25.42
2022-12-27T21:04:07.862Z,25.37
2022-12-27T21:06:38.175Z,25.37
2022-12-27T21:09:09.778Z,25.27
2022-12-27T21:11:40.200Z,25.10
2022-12-27T21:14:13.442Z,25.06
2022-12-27T21:16:43.673Z,25.02
2022-12-27T21:19:13.994Z,24.91
2022-12-27T21:21:44.461Z,24.93
2022-12-27T21:24:15.538Z,24.89
2022-12-27T21:26:45.820Z,24.80
2022-12-27T21:29:17.509Z,24.69
2022-12-27T21:31:48.408Z,24.70
2022-12-27T21:34:18.711Z,24.58
2022-12-27T21:36:52.130Z,24.49
2022-12-27T21:39:22.539Z,24.47
2022-12-27T21:41:54.410Z,24.38
2022-12-27T21:44:26.716Z,24.30
2022-12-27T21:46:57.302Z,24.28
2022-12-27T21:49:27.552Z,24.33
2022-12-27T21:51:57.821Z,24.32
2022-12-27T21:54:28.635Z,24.32
2022-12-27T21:56:58.880Z,24.22
2022-12-27T21:59:29.163Z,24.12
2022-12-27T22:01:59.492Z,24.11
2022-12-27T22:04:29.714Z,24.07
2022-12-27T22:07:00.017Z,24.01
2022-12-27T22:09:29.656Z,23.98
2022-12-27T22:11:59.678Z,24.00
2022-12-27T22:14:33.268Z,23.91
2022-12-27T22:17:07.098Z,23.87
2022-12-27T22:19:37.362Z,23.74
2022-12-27T22:22:07.739Z,23.74
2022-12-27T22:24:38.002Z,23.60
2022-12-27T22:27:08.308Z,23.53
2022-12-27T22:29:37.802Z,23.45
2022-12-27T22:32:07.846Z,23.43
2022-12-27T22:34:38.068Z,23.42
2022-12-27T22:37:08.132Z,23.27
2022-12-27T22:39:38.372Z,23.20
2022-12-27T22:42:08.671Z,23.15
2022-12-27T22:44:38.916Z,23.08
2022-12-27T22:47:26.375Z,22.96
2022-12-27T22:49:57.225Z,22.89
2022-12-27T22:52:27.377Z,22.86
2022-12-27T22:55:04.644Z,22.82
2022-12-27T22:57:37.193Z,22.79
2022-12-27T23:00:10.709Z,22.79
2022-12-27T23:02:41.585Z,22.67
2022-12-27T23:05:11.976Z,22.65
2022-12-27T23:08:05.348Z,22.57
2022-12-27T23:10:32.695Z,22.55
2022-12-27T23:13:03.118Z,22.49
2022-12-27T23:15:33.258Z,22.49
2022-12-27T23:18:03.416Z,22.47
2022-12-27T23:20:35.381Z,22.43
2022-12-27T23:23:05.547Z,22.41
2022-12-27T23:25:38.043Z,22.43
2022-12-27T23:28:08.305Z,22.40
2022-12-27T23:30:38.377Z,22.40
2022-12-27T23:33:08.574Z,22.41
2022-12-27T23:35:38.338Z,22.40
2022-12-27T23:38:08.203Z,22.41
2022-12-27T23:40:37.867Z,22.41
2022-12-27T23:43:41.951Z,22.45
2022-12-27T23:46:14.935Z,22.41
2022-12-27T23:48:46.424Z,22.35
2022-12-27T23:51:17.456Z,22.30
2022-12-27T23:53:47.775Z,22.24
2022-12-27T23:56:26.307Z,22.21
2022-12-27T23:58:58.624Z,22.20
